KALO/ALO METAR and TAF weather

Enter ICAO airport designator
Station Type Date Time Source
KALO METAR 2024/06/15 22:54 UTC NOAA

KALO 152254Z AUTO 16017G26KT 10SM CLR 28/12 A2986 RMK AO2 PK WND 17029/2232 SLP105 T02830117


Station Type Date Time Source
KALO Decoded METAR 2024/06/15 22:54 UTC NOAA

WATERLOO MUNICIPAL AIRPORT, IA, United States (KALO) 42-33N 92-24W 264M
Jun 15, 2024 - 06:54 PM EDT / 2024.06.15 2254 UTC
Wind: from the SSE (160 degrees) at 20 MPH (17 KT) gusting to 30 MPH (26 KT):0
Visibility: 10 mile(s):0
Sky conditions: clear
Temperature: 82.9 F (28.3 C)
Dew Point: 53.1 F (11.7 C)
Relative Humidity: 35%
Pressure (altimeter): 29.86 in. Hg (1011 hPa)
ob: KALO 152254Z AUTO 16017G26KT 10SM CLR 28/12 A2986 RMK AO2 PK WND 17029/2232 SLP105 T02830117
cycle: 23

Station Type Date Time Source
KALO TAF 2024/06/15 18:46 UTC NOAA